< Typhoon 199719 1997 Season Typhoon 199721 >
Typhoon 199720 (DAVID)
General InformationTrack Information on Google MapsDetailed Wind InformationList of All Images || NewsDisaster Info.ResourceGoogle EarthGE AnimationAtom FeedGeoJSON
Detalied Best Track (Time Zone = UTC)
Year Month Day Hour Lat. Long. Pressure (hPa) Wind (kt) Class Image Chart
1997 9 11 06 10.0 170.1 1000 0 2 Image Chart
1997 9 11 12 11.3 169.9 1000 0 2 Image Chart
1997 9 11 18 12.4 169.8 1000 0 2 Image Chart
1997 9 12 00 13.2 169.5 1000 0 2 Image Chart
1997 9 12 06 13.7 168.6 1000 0 2 Image Chart
1997 9 12 12 14.2 167.5 998 0 2 Image Chart
1997 9 12 18 14.5 166.8 994 35 3 Image Chart
1997 9 13 00 14.8 166.0 992 40 3 Image Chart
1997 9 13 06 15.1 165.3 990 50 4 Image Chart
1997 9 13 12 15.5 164.7 990 50 4 Image Chart
1997 9 13 18 15.9 164.1 985 55 4 Image Chart
1997 9 14 00 16.5 163.5 980 60 4 Image Chart
1997 9 14 06 17.8 162.9 975 60 4 Image Chart
1997 9 14 12 18.9 162.0 970 65 5 Image Chart
1997 9 14 18 20.3 160.5 965 70 5 Image Chart
1997 9 15 00 21.1 159.0 955 75 5 Image Chart
1997 9 15 06 22.0 157.7 950 80 5 Image Chart
1997 9 15 12 22.6 156.4 945 85 5 Image Chart
1997 9 15 18 23.0 155.4 945 85 5 Image Chart
1997 9 16 00 23.4 154.0 945 85 5 Image Chart
1997 9 16 06 23.9 152.7 945 85 5 Image Chart
1997 9 16 12 24.3 151.2 945 85 5 Image Chart
1997 9 16 18 24.8 149.6 950 80 5 Image Chart
1997 9 17 00 25.2 148.0 955 75 5 Image Chart
1997 9 17 06 25.8 146.4 960 75 5 Image Chart
1997 9 17 12 26.3 145.0 960 75 5 Image Chart
1997 9 17 15 26.6 144.4 960 75 5 Image Chart
1997 9 17 18 27.0 143.6 960 75 5 Image Chart
1997 9 17 21 27.4 143.1 960 75 5 Image Chart
1997 9 18 00 27.8 142.6 960 75 5 Image Chart
1997 9 18 03 28.4 142.2 960 75 5 Image Chart
1997 9 18 06 29.1 142.0 965 70 5 Image Chart
1997 9 18 09 29.8 141.9 965 70 5 Image Chart
1997 9 18 12 30.6 141.6 965 70 5 Image Chart
1997 9 18 15 31.3 141.6 965 70 5 Image Chart
1997 9 18 18 32.2 141.6 965 70 5 Image Chart
1997 9 18 21 33.2 142.0 965 70 5 Image Chart
1997 9 19 00 34.0 142.3 970 65 5 Image Chart
1997 9 19 03 35.0 143.0 970 65 5 Image Chart
1997 9 19 06 36.0 144.0 970 65 5 Image Chart
1997 9 19 09 37.3 145.7 970 65 5 Image Chart
1997 9 19 12 38.6 147.3 975 60 4 Image Chart
1997 9 19 18 41.9 151.8 976 0 6 Image Chart
1997 9 20 00 46.1 154.0 972 0 6 Image Chart
1997 9 20 06 48.6 158.3 968 0 6 Image Chart
1997 9 20 12 49.8 163.0 964 0 6 Image Chart
1997 9 20 18 50.9 169.2 960 0 6 Image Chart
1997 9 21 00 50.9 175.3 960 0 6 Image Chart
1997 9 21 06 51.1 181.3 964 0 6 Image Chart
Japan Meteorological Agency Best Track Data | Correction Date : 1998-01-19
< Typhoon 199719 1997 Season Typhoon 199721 >

Help